Airfield :
LOGIN :

Register | Disclaimer

   EN    FR    IT 

 










Legend :    VFR   Marginal VFR   IFR   Intensive IFR   Very Intensive IFR
Visi :
Ceiling :
>= 8 km
>= 3000ft
5 to 8 km
1000 to 3000 ft
1500m to 5 km
500 to 1000 ft
800 to 1500m
200 to 500 ft
< 800m
< 200 ft
Symbols :   Thunderstorms  Fog  Heavy snow  Heavy precipitations  Wind > 20 kt
SIGMETs :     Misc.  Thunderstorms  Icing  Turbulence  Mountain Waves  Volcanic Ashes







- Airport Elevation : 194 ft
- IATA code : ANE
- Download approach charts


LFJR - Angers Marcé

CURRENT METAR :
  • 250200Z AUTO VRB01KT CAVOK 17/16 Q1014

EXPIRED METARs :
  • 250130Z AUTO 31003KT 270V350 CAVOK 17/16 Q1014
  • 250100Z AUTO VRB03KT CAVOK 17/16 Q1014
  • 250030Z AUTO 36003KT 300V040 CAVOK 18/16 Q1014
  • 250000Z AUTO 36005KT 340V040 CAVOK 18/16 Q1014
  • 242330Z AUTO 35007KT CAVOK 18/17 Q1014

Expired Forecast.
No reported NOTAMs for that airfield.
1 SIGMET reported for the Brest FIR (LFRR) :
 
Embedded thunderstorms and hail
LFRR SIGMET 8 VALID 242300/250300 LFPW
LFRR BREST FIR/UIR EMBD TSGR FCST WI N5000 W00215 - N5000 W00200 - N5000 W00015 - N4830 W00015 - N4830 W00145 - N5000 W00215 TOP FL380 MOV NE 20KT NC=



MET'MAP, your aeronautical weather chart ! - Copyright ORBIFLY December 2007 - Disclaimer

ORBIFLY MET'MAP TEAM :

Programming & Development : Alexandra Zaïnal
Concept & Development : Baudouin d'Aumeries
Co-Development & Prog : Marc-Olivier Méhu
Technical & hardware support : Manuel Goepfert

Contact : metmap@orbifly.com




SOURCES & CREDITS :

   NOAA